Pagrindinis puslapis
METAR-TAF:

METAR-TAF

Oro uostai :

Pelotasas, Pietų Rio Grandė, Brazilija

platuma: 31-52S, ilguma: 052-21W, Aukštis: 13 m

Dabartinis oras

Ataskaita buvo paskelbta 4 valandos ir 17 minutes, ne 21:45 UTC
Vėjas 5 kt iš Rytų
Temperatūra 28°C
Drėgmė 70%
Slėgis 1009 hPa
Matomumas 10 km arba daugiau
Mažai debesys ne aukštis 4500 ft, Liūtiniai kamuoliniai debesys.
perkūnija

METAR: SBPK 202145Z 09005KT 9999 TS FEW045CB 28/22 Q1009

Laikas: 23:02 (02:02 UTC)

Prognozė

Ataskaita buvo paskelbta 3 valandos ir 32 minutes, ne 22:30 UTC
Prognozė galioja nuo 21 metu 00 UTC su 21 metu 24 UTC
Vėjas 8 kt iš Rytų
Matomumas 10 km arba daugiau
nėra debesų žemiau 1500 m ir nėra kamuolinių lietaus debesų
Tapsmas
nuo 21 metu 12 UTC su 21 metu 14 UTC
Matomumas 10 km arba daugiau
Išsisklaidę debesys ne aukštis 3000 ft

TAF: SBPK 202230Z 2100/2124 09008KT CAVOK TN22/2108Z TX36/2118Z BECMG 2112/2114 9999 SCT030 RMK PEB

Orai ataskaitas ir orų prognozės (METAR, TAF).

turimą stotys yra geltonos ir raudonos taškus žemėlapyje.

Perkelti pele per norėdami pamatyti stoties vardą.

Tada spustelėkite, norėdami matyti oro stebėjimo ir prognozės.

Norėdami pakeisti žemėlapį: spustelėkite ant žalios mygtukų su juodo kryžiaus žemyn,; žalią mygtuką su brūkšneliu, jei norite nutolinti; arba žalių rodyklių gretimoms žemėlapius.


METAR-TAF: